createdAt,value
2019-01-08T00:01:14.394Z,3.43
2019-01-08T00:17:36.111Z,3.00
2019-01-08T00:22:48.008Z,2.93
2019-01-08T00:28:04.572Z,2.53
2019-01-08T00:38:19.436Z,2.27
2019-01-08T00:43:24.363Z,1.97
2019-01-08T00:59:48.149Z,2.03
2019-01-08T01:26:30.060Z,1.97
2019-01-08T01:31:45.611Z,1.80
2019-01-08T01:36:50.017Z,2.07
2019-01-08T01:41:54.281Z,2.00
2019-01-08T01:47:17.917Z,2.13
2019-01-08T01:52:41.607Z,2.03
2019-01-08T02:03:14.790Z,1.87
2019-01-08T02:08:19.050Z,1.80
2019-01-08T02:18:52.424Z,1.90
2019-01-08T02:29:25.188Z,4.47
2019-01-08T02:34:29.820Z,3.33
2019-01-08T02:39:34.088Z,6.33
2019-01-08T02:54:57.402Z,12.23
2019-01-08T03:10:59.784Z,9.87
2019-01-08T03:16:04.025Z,10.80
2019-01-08T03:31:27.644Z,11.30
2019-01-08T03:36:43.897Z,14.07
2019-01-08T03:41:48.471Z,13.90
2019-01-08T03:46:55.064Z,19.83
2019-01-08T03:51:59.391Z,15.47
2019-01-08T03:57:03.696Z,12.37
2019-01-08T04:02:07.965Z,18.30
2019-01-08T04:07:12.257Z,15.47
2019-01-08T04:12:16.481Z,16.37
2019-01-08T04:17:21.067Z,18.73
2019-01-08T04:22:25.606Z,18.63
2019-01-08T04:27:29.886Z,13.03
2019-01-08T04:32:34.105Z,14.90
2019-01-08T04:37:38.372Z,11.27
2019-01-08T04:42:42.681Z,22.67
2019-01-08T04:47:46.896Z,18.43
2019-01-08T04:52:51.110Z,15.70
2019-01-08T04:57:55.547Z,11.27
2019-01-08T05:02:59.807Z,16.77
2019-01-08T05:08:04.133Z,18.97
2019-01-08T05:13:08.379Z,17.43
2019-01-08T05:18:12.641Z,20.43
2019-01-08T05:23:16.936Z,14.30
2019-01-08T05:28:21.169Z,15.47
2019-01-08T05:33:25.501Z,17.33
2019-01-08T05:38:29.787Z,17.23
2019-01-08T05:43:34.033Z,14.07
2019-01-08T05:48:38.274Z,18.10
2019-01-08T05:53:42.630Z,15.77
2019-01-08T05:58:46.830Z,14.30
2019-01-08T06:03:51.144Z,14.57
2019-01-08T06:08:55.379Z,17.23
2019-01-08T06:13:59.748Z,14.13
2019-01-08T06:19:03.992Z,19.57
2019-01-08T06:24:08.214Z,10.97
2019-01-08T06:29:12.641Z,15.83
2019-01-08T06:34:16.886Z,18.70
2019-01-08T06:39:21.147Z,17.40
2019-01-08T06:44:25.453Z,13.47
2019-01-08T06:49:29.799Z,16.57
2019-01-08T06:54:34.375Z,12.37
2019-01-08T06:59:38.654Z,21.63
2019-01-08T07:04:42.887Z,17.07
2019-01-08T07:09:47.228Z,16.23
2019-01-08T07:14:51.656Z,14.53
2019-01-08T07:19:56.013Z,13.63
2019-01-08T07:25:00.545Z,12.47
2019-01-08T07:30:05.148Z,11.47
2019-01-08T07:35:09.506Z,23.60
2019-01-08T07:40:13.862Z,16.70
2019-01-08T07:45:18.263Z,10.17
2019-01-08T07:55:32.621Z,14.80
2019-01-08T08:00:55.916Z,16.30
2019-01-08T08:06:00.218Z,13.77
2019-01-08T08:16:13.998Z,20.23
2019-01-08T08:21:37.632Z,17.60
2019-01-08T08:26:41.957Z,19.63
2019-01-08T08:31:46.278Z,17.30
2019-01-08T08:37:11.874Z,14.60
2019-01-08T08:42:27.511Z,12.83
2019-01-08T08:47:32.146Z,9.50
2019-01-08T08:52:36.382Z,9.93
2019-01-08T08:57:40.634Z,13.70
2019-01-08T09:08:13.406Z,9.10
2019-01-08T09:13:17.698Z,26.27
2019-01-08T09:33:51.284Z,13.70
2019-01-08T09:38:55.579Z,10.63
2019-01-08T09:43:59.956Z,12.87
2019-01-08T09:49:04.510Z,14.03
2019-01-08T09:54:08.895Z,14.93
2019-01-08T09:59:13.119Z,15.67
2019-01-08T10:04:17.600Z,10.20
2019-01-08T10:09:21.896Z,11.43
2019-01-08T10:14:26.442Z,13.17
2019-01-08T10:19:30.762Z,8.80
2019-01-08T10:24:35.105Z,12.67
2019-01-08T10:29:39.337Z,12.73
2019-01-08T10:34:43.651Z,12.33
2019-01-08T10:39:47.872Z,13.57
2019-01-08T10:44:52.232Z,9.20
2019-01-08T10:49:56.556Z,4.70
2019-01-08T10:55:00.783Z,7.07
2019-01-08T11:00:05.521Z,4.67
2019-01-08T11:05:09.760Z,7.03
2019-01-08T11:10:14.382Z,9.60
2019-01-08T11:15:18.628Z,11.03
2019-01-08T11:20:23.053Z,13.47
2019-01-08T11:25:28.314Z,14.60
2019-01-08T11:30:32.528Z,11.37
2019-01-08T11:35:42.155Z,14.50
2019-01-08T11:40:42.763Z,13.33
2019-01-08T11:45:47.147Z,11.47
2019-01-08T11:50:51.379Z,21.80
2019-01-08T11:55:55.891Z,14.13
2019-01-08T12:00:59.953Z,10.47
2019-01-08T12:06:04.263Z,8.83
2019-01-08T12:11:08.559Z,8.07
2019-01-08T12:16:12.886Z,8.43
2019-01-08T12:21:17.508Z,11.67
2019-01-08T12:26:22.124Z,10.97
2019-01-08T12:31:26.406Z,9.57
2019-01-08T12:36:30.750Z,10.57
2019-01-08T12:41:35.520Z,15.00
2019-01-08T12:46:40.038Z,12.43
2019-01-08T12:51:44.302Z,14.03
2019-01-08T12:56:48.628Z,15.33
2019-01-08T13:01:53.008Z,6.87
2019-01-08T13:06:57.336Z,12.00
2019-01-08T13:12:01.556Z,4.83
2019-01-08T13:17:11.454Z,4.53
2019-01-08T13:22:11.797Z,2.90
2019-01-08T13:27:16.208Z,3.60
2019-01-08T13:32:23.328Z,5.17
2019-01-08T13:37:26.863Z,5.73
2019-01-08T13:42:31.334Z,6.77
2019-01-08T13:47:35.752Z,4.50
2019-01-08T13:52:40.449Z,7.23
2019-01-08T13:57:44.759Z,7.10
2019-01-08T14:02:49.019Z,6.67
2019-01-08T14:07:53.348Z,3.17
2019-01-08T14:12:57.680Z,9.53
2019-01-08T14:18:01.948Z,6.10
2019-01-08T14:23:06.752Z,8.73
2019-01-08T14:28:11.285Z,19.73
2019-01-08T14:33:15.889Z,19.37
2019-01-08T14:38:20.169Z,13.50
2019-01-08T14:43:24.493Z,19.10
2019-01-08T14:48:28.865Z,14.07
2019-01-08T14:53:33.189Z,10.50
2019-01-08T14:58:37.508Z,14.83
2019-01-08T15:03:41.856Z,18.20
2019-01-08T15:08:46.186Z,11.97
2019-01-08T15:13:50.581Z,9.37
2019-01-08T15:18:54.996Z,11.53
2019-01-08T15:23:59.675Z,6.67
2019-01-08T15:29:03.907Z,8.30
2019-01-08T15:34:08.160Z,12.27
2019-01-08T15:39:12.510Z,15.97
2019-01-08T15:44:17.071Z,10.57
2019-01-08T15:49:21.415Z,13.03
2019-01-08T15:54:25.637Z,12.77
2019-01-08T15:59:29.911Z,8.73
2019-01-08T16:04:34.220Z,9.47
2019-01-08T16:09:38.823Z,9.37
2019-01-08T16:14:43.510Z,9.50
2019-01-08T16:19:48.035Z,9.03
2019-01-08T16:24:52.476Z,9.80
2019-01-08T16:29:56.749Z,7.07
2019-01-08T16:35:01.090Z,14.10
2019-01-08T16:40:05.959Z,10.53
2019-01-08T16:45:10.818Z,6.40
2019-01-08T16:50:15.941Z,7.63
2019-01-08T16:55:20.354Z,8.33
2019-01-08T17:00:24.685Z,12.67
2019-01-08T17:05:29.010Z,16.17
2019-01-08T17:10:33.317Z,20.97
2019-01-08T17:15:37.837Z,11.27
2019-01-08T17:20:42.229Z,19.57
2019-01-08T17:25:48.025Z,16.90
2019-01-08T17:30:52.537Z,26.20
2019-01-08T17:35:56.844Z,20.70
2019-01-08T17:41:01.102Z,15.67
2019-01-08T17:46:05.416Z,15.23
2019-01-08T17:51:09.721Z,17.43
2019-01-08T17:56:14.145Z,17.57
2019-01-08T18:01:24.701Z,18.30
2019-01-08T18:06:28.944Z,21.43
2019-01-08T18:11:33.241Z,23.13
2019-01-08T18:16:37.476Z,17.43
2019-01-08T18:21:41.903Z,20.47
2019-01-08T18:26:46.216Z,17.70
2019-01-08T18:31:50.904Z,17.13
2019-01-08T18:36:55.154Z,21.67
2019-01-08T18:41:59.792Z,18.73
2019-01-08T18:47:04.219Z,16.90
2019-01-08T18:52:08.592Z,25.17
2019-01-08T18:57:12.809Z,18.00
2019-01-08T19:02:17.452Z,14.00
2019-01-08T19:07:25.496Z,11.73
2019-01-08T19:12:29.855Z,7.13
2019-01-08T19:17:34.458Z,9.77
2019-01-08T19:22:38.829Z,4.27
2019-01-08T19:27:44.003Z,6.37
2019-01-08T19:32:48.220Z,5.70
2019-01-08T19:37:52.547Z,8.47
2019-01-08T19:42:57.023Z,6.13
2019-01-08T19:48:01.278Z,10.43
2019-01-08T19:53:05.838Z,2.73
2019-01-08T19:58:10.088Z,11.20
2019-01-08T20:03:14.402Z,11.37
2019-01-08T20:08:18.650Z,15.40
2019-01-08T20:13:22.911Z,13.60
2019-01-08T20:18:27.297Z,14.53
2019-01-08T20:23:34.753Z,20.23
2019-01-08T20:28:39.061Z,19.63
2019-01-08T20:33:43.655Z,17.23
2019-01-08T20:38:48.036Z,15.60
2019-01-08T20:43:52.453Z,12.87
2019-01-08T20:48:56.822Z,12.30
2019-01-08T20:54:01.275Z,33.43
2019-01-08T20:59:05.856Z,13.87
2019-01-08T21:04:10.189Z,13.57
2019-01-08T21:09:14.460Z,11.87
2019-01-08T21:14:19.061Z,14.53
2019-01-08T21:19:23.310Z,11.97
2019-01-08T21:24:28.873Z,13.83
2019-01-08T21:29:33.488Z,12.17
2019-01-08T21:34:44.263Z,10.63
2019-01-08T21:39:44.476Z,10.30
2019-01-08T21:44:48.821Z,10.27
2019-01-08T21:49:53.413Z,7.90
2019-01-08T21:54:57.847Z,16.43
2019-01-08T22:00:02.179Z,19.40
2019-01-08T22:05:06.591Z,15.83
2019-01-08T22:10:10.967Z,15.33
2019-01-08T22:15:17.852Z,13.77
2019-01-08T22:20:22.809Z,10.47
2019-01-08T22:25:27.492Z,11.37
2019-01-08T22:30:31.780Z,10.77
2019-01-08T22:41:24.857Z,16.93
2019-01-08T22:46:48.305Z,19.13
2019-01-08T22:57:13.487Z,15.03
2019-01-08T23:02:17.796Z,15.63
2019-01-08T23:13:09.758Z,15.07
2019-01-08T23:18:33.088Z,10.97
2019-01-08T23:23:56.346Z,10.50
2019-01-08T23:34:29.732Z,5.03
2019-01-08T23:39:33.957Z,9.73
2019-01-08T23:44:38.205Z,10.50
2019-01-08T23:55:31.133Z,15.13
